Time;durP1;ratioP1;P1;durP2;ratioP2;P2;SDS_P1;SDS_P2;PMS_P1;PMS_P2;Temp;Humidity;BMP_temperature;BMP_pressure;BME280_temperature;BME280_humidity;BME280_pressure;Samples;Min_cycle;Max_cycle;Signal;HPM_P1;HPM_P2
2023/01/16 00:00:51;;;;;;;;;;;;;;;;;;4961325;28;19926;-75
2023/01/16 00:03:17;;;;;;;;;;;;;;;;;;4962720;28;19925;-75
2023/01/16 00:05:43;;;;;;;;;;;;;;;;;;4964235;28;19921;-75
2023/01/16 00:08:09;;;;;;;;;;;;;;;;;;4963327;28;19926;-75
2023/01/16 00:10:35;;;;;;;;;;;;;;;;;;4965314;28;19995;-75
2023/01/16 00:13:01;;;;;;;;;;;;;;;;;;4981862;28;19929;-75
2023/01/16 00:15:27;;;;;;;;;;;;;;;;;;4982299;28;19925;-76
2023/01/16 00:17:53;;;;;;;;;;;;;;;;;;4983287;28;19921;-75
2023/01/16 00:20:19;;;;;;;;;;;;;;;;;;4961905;28;19933;-75
2023/01/16 00:22:45;;;;;;;;;;;;;;;;;;4964388;28;19968;-76
2023/01/16 00:25:10;;;;;;;;;;;;;;;;;;4960518;28;20024;-75
2023/01/16 00:27:36;;;;;;;;;;;;;;;;;;4979260;28;19972;-76
2023/01/16 00:30:02;;;;;;;;;;;;;;;;;;4963727;28;19921;-76
2023/01/16 00:32:28;;;;;;;;;;;;;;;;;;4964518;28;19929;-75
2023/01/16 00:34:54;;;;;;;;;;;;;;;;;;4962138;28;19926;-76
2023/01/16 00:37:20;;;;;;;;;;;;;;;;;;4963936;28;20487;-75
2023/01/16 00:39:46;;;;;;;;;;;;;;;;;;4961919;28;19925;-76
2023/01/16 00:42:12;;;;;;;;;;;;;;;;;;4962956;28;19948;-76
2023/01/16 00:44:38;;;;;;;;;;;;;;;;;;4960458;28;19926;-76
2023/01/16 00:47:05;;;;;;;;;;;;;;;;;;4960518;28;19925;-75
2023/01/16 00:49:31;;;;;;;;;;;;;;;;;;4977757;28;19926;-76
2023/01/16 00:51:56;;;;;;;;;;;;;;;;;;4978581;28;19977;-75
2023/01/16 00:54:22;;;;;;;;;;;;;;;;;;4977722;28;19932;-74
2023/01/16 00:56:48;;;;;;;;;;;;;;;;;;4960242;28;19929;-75
2023/01/16 00:59:14;;;;;;;;;;;;;;;;;;4959804;28;19932;-75
2023/01/16 01:01:40;;;;;;;;;;;;;;;;;;4958492;28;19925;-75
2023/01/16 01:04:06;;;;;;;;;;;;;;;;;;4959211;28;19968;-75
2023/01/16 01:06:32;;;;;;;;;;;;;;;;;;4959603;28;20362;-75
2023/01/16 01:08:58;;;;;;;;;;;;;;;;;;4959461;28;19964;-75
2023/01/16 01:11:24;;;;;;;;;;;;;;;;;;4961561;28;19930;-75
2023/01/16 01:13:50;;;;;;;;;;;;;;;;;;4960218;28;20779;-74
2023/01/16 01:16:16;;;;;;;;;;;;;;;;;;4960727;28;20295;-73
2023/01/16 01:18:42;;;;;;;;;;;;;;;;;;4958421;28;20267;-75
2023/01/16 01:21:08;;;;;;;;;;;;;;;;;;4963097;28;20020;-75
2023/01/16 01:23:34;;;;;;;;;;;;;;;;;;4958536;28;19961;-77
2023/01/16 01:26:00;;;;;;;;;;;;;;;;;;4952577;28;20114;-77
2023/01/16 01:28:26;;;;;;;;;;;;;;;;;;4944728;28;21329;-77
2023/01/16 01:30:52;;;;;;;;;;;;;;;;;;4955447;28;19929;-77
2023/01/16 01:33:18;;;;;;;;;;;;;;;;;;4959400;28;19929;-77
2023/01/16 01:35:44;;;;;;;;;;;;;;;;;;4959112;28;19933;-76
2023/01/16 01:38:10;;;;;;;;;;;;;;;;;;4943848;28;19926;-77
2023/01/16 01:40:36;;;;;;;;;;;;;;;;;;4958414;28;19922;-77
2023/01/16 01:43:02;;;;;;;;;;;;;;;;;;4967012;28;19922;-74
2023/01/16 01:45:28;;;;;;;;;;;;;;;;;;4975900;28;19938;-74
2023/01/16 01:47:54;;;;;;;;;;;;;;;;;;4975526;28;19925;-75
2023/01/16 01:50:20;;;;;;;;;;;;;;;;;;4976411;28;19926;-74
2023/01/16 01:52:46;;;;;;;;;;;;;;;;;;4976368;28;19979;-75
2023/01/16 01:55:12;;;;;;;;;;;;;;;;;;4976792;28;19936;-74
2023/01/16 01:57:38;;;;;;;;;;;;;;;;;;4974928;28;19936;-75
2023/01/16 02:00:04;;;;;;;;;;;;;;;;;;4959446;28;19926;-75
2023/01/16 02:02:30;;;;;;;;;;;;;;;;;;4973243;28;20605;-75
2023/01/16 02:04:59;;;;;;;;;;;;;;;;;;4975463;28;19999;-75
2023/01/16 02:07:24;;;;;;;;;;;;;;;;;;4978745;28;20060;-75
2023/01/16 02:09:50;;;;;;;;;;;;;;;;;;4972990;28;19929;-75
2023/01/16 02:12:17;;;;;;;;;;;;;;;;;;4975422;28;20016;-75
2023/01/16 02:14:43;;;;;;;;;;;;;;;;;;4977854;28;19964;-75
2023/01/16 02:19:53;;;;;;;;;;;;;;;;;;4977147;28;20468;-76
2023/01/16 02:22:19;;;;;;;;;;;;;;;;;;4977665;28;19921;-77
2023/01/16 02:24:45;;;;;;;;;;;;;;;;;;4976318;28;20051;-77
2023/01/16 02:27:11;;;;;;;;;;;;;;;;;;4959561;28;19928;-77
2023/01/16 02:29:37;;;;;;;;;;;;;;;;;;4960090;28;19925;-77
2023/01/16 02:32:03;;;;;;;;;;;;;;;;;;4978190;28;19925;-77
2023/01/16 02:34:29;;;;;;;;;;;;;;;;;;4974252;28;19975;-77
2023/01/16 02:36:55;;;;;;;;;;;;;;;;;;4950811;28;19932;-77
2023/01/16 02:39:21;;;;;;;;;;;;;;;;;;4976844;28;19953;-77
2023/01/16 02:41:47;;;;;;;;;;;;;;;;;;4976140;28;19976;-77
2023/01/16 02:44:12;;;;;;;;;;;;;;;;;;4978135;28;21305;-77
2023/01/16 02:46:38;;;;;;;;;;;;;;;;;;4998131;28;19921;-77
2023/01/16 02:49:04;;;;;;;;;;;;;;;;;;4977384;28;19929;-77
2023/01/16 02:51:32;;;;;;;;;;;;;;;;;;4963306;28;19929;-77
2023/01/16 02:53:58;;;;;;;;;;;;;;;;;;4976693;28;19956;-77
2023/01/16 02:56:24;;;;;;;;;;;;;;;;;;5000957;28;19925;-77
2023/01/16 02:58:49;;;;;;;;;;;;;;;;;;4983773;28;20367;-76
2023/01/16 03:01:15;;;;;;;;;;;;;;;;;;4982658;28;19921;-77
2023/01/16 03:03:41;;;;;;;;;;;;;;;;;;5001012;28;19925;-77
2023/01/16 03:06:07;;;;;;;;;;;;;;;;;;4981049;28;19929;-77
2023/01/16 03:08:33;;;;;;;;;;;;;;;;;;5001656;28;19921;-77
2023/01/16 03:11:01;;;;;;;;;;;;;;;;;;5000935;28;19929;-77
2023/01/16 03:13:27;;;;;;;;;;;;;;;;;;4981612;28;19968;-77
2023/01/16 03:15:53;;;;;;;;;;;;;;;;;;4982088;28;20123;-77
2023/01/16 03:18:19;;;;;;;;;;;;;;;;;;4980496;28;19948;-77
2023/01/16 03:20:45;;;;;;;;;;;;;;;;;;4999105;28;19929;-77
2023/01/16 03:23:11;;;;;;;;;;;;;;;;;;4985358;28;20016;-77
2023/01/16 03:25:36;;;;;;;;;;;;;;;;;;4978719;28;19922;-77
2023/01/16 03:28:04;;;;;;;;;;;;;;;;;;4967753;28;19929;-77
2023/01/16 03:30:30;;;;;;;;;;;;;;;;;;4999247;28;19925;-77
2023/01/16 03:32:56;;;;;;;;;;;;;;;;;;5001719;28;19932;-77
2023/01/16 03:35:22;;;;;;;;;;;;;;;;;;4981934;28;19999;-77
2023/01/16 03:37:48;;;;;;;;;;;;;;;;;;5001048;28;19936;-77
2023/01/16 03:40:15;;;;;;;;;;;;;;;;;;5000331;28;19925;-78
2023/01/16 03:42:41;;;;;;;;;;;;;;;;;;4979607;28;20066;-77
2023/01/16 03:45:07;;;;;;;;;;;;;;;;;;4980851;28;20423;-78
2023/01/16 03:47:33;;;;;;;;;;;;;;;;;;4963550;28;19980;-77
2023/01/16 03:49:59;;;;;;;;;;;;;;;;;;4961709;28;19932;-77
2023/01/16 03:52:25;;;;;;;;;;;;;;;;;;4949140;28;20595;-77
2023/01/16 03:54:51;;;;;;;;;;;;;;;;;;4977758;28;19930;-77
2023/01/16 03:57:17;;;;;;;;;;;;;;;;;;4962618;28;19932;-78
2023/01/16 03:59:43;;;;;;;;;;;;;;;;;;4978672;28;20004;-78
2023/01/16 04:02:09;;;;;;;;;;;;;;;;;;4981544;28;20109;-78
2023/01/16 04:04:34;;;;;;;;;;;;;;;;;;4980919;28;19949;-78
2023/01/16 04:07:00;;;;;;;;;;;;;;;;;;4979260;28;19921;-79
2023/01/16 04:09:26;;;;;;;;;;;;;;;;;;4980619;28;19948;-78
2023/01/16 04:11:52;;;;;;;;;;;;;;;;;;4978333;28;20020;-78
2023/01/16 04:14:18;;;;;;;;;;;;;;;;;;4981413;28;19960;-78
2023/01/16 04:16:45;;;;;;;;;;;;;;;;;;4980029;28;19925;-76
2023/01/16 04:19:12;;;;;;;;;;;;;;;;;;4979839;28;20035;-78
2023/01/16 04:21:38;;;;;;;;;;;;;;;;;;4980301;28;19968;-78
2023/01/16 04:24:04;;;;;;;;;;;;;;;;;;4981769;28;20063;-78
2023/01/16 04:26:30;;;;;;;;;;;;;;;;;;4979639;28;20288;-78
2023/01/16 04:28:56;;;;;;;;;;;;;;;;;;4981423;28;20343;-78
2023/01/16 04:31:22;;;;;;;;;;;;;;;;;;4978748;28;19932;-78
2023/01/16 04:33:48;;;;;;;;;;;;;;;;;;4981256;28;20028;-78
2023/01/16 04:36:14;;;;;;;;;;;;;;;;;;4979641;28;20008;-75
2023/01/16 04:38:40;;;;;;;;;;;;;;;;;;4961981;28;19954;-75
2023/01/16 04:41:05;;;;;;;;;;;;;;;;;;4959234;28;20576;-75
2023/01/16 04:43:31;;;;;;;;;;;;;;;;;;4966811;28;19932;-76
2023/01/16 04:45:57;;;;;;;;;;;;;;;;;;4978566;28;20349;-75
2023/01/16 04:48:23;;;;;;;;;;;;;;;;;;4980386;28;19944;-75
2023/01/16 04:50:49;;;;;;;;;;;;;;;;;;4978271;28;19929;-75
2023/01/16 04:53:15;;;;;;;;;;;;;;;;;;4962164;28;19937;-75
2023/01/16 04:55:41;;;;;;;;;;;;;;;;;;4976363;28;19921;-75
2023/01/16 04:58:07;;;;;;;;;;;;;;;;;;4978557;28;19930;-75
2023/01/16 05:00:33;;;;;;;;;;;;;;;;;;4977208;28;19930;-75
2023/01/16 05:02:59;;;;;;;;;;;;;;;;;;4976470;28;19926;-75
2023/01/16 05:05:25;;;;;;;;;;;;;;;;;;4978274;28;19933;-76
2023/01/16 05:08:15;;;;;;;;;;;;;;;;;;4978464;28;20123;-75
2023/01/16 05:10:37;;;;;;;;;;;;;;;;;;4977795;28;19925;-75
2023/01/16 05:13:03;;;;;;;;;;;;;;;;;;4978280;28;19983;-78
2023/01/16 05:15:29;;;;;;;;;;;;;;;;;;4977956;28;20470;-78
2023/01/16 05:17:55;;;;;;;;;;;;;;;;;;4979517;28;19972;-78
2023/01/16 05:20:21;;;;;;;;;;;;;;;;;;4975506;28;19921;-78
2023/01/16 05:22:47;;;;;;;;;;;;;;;;;;4977946;28;19940;-78
2023/01/16 05:25:13;;;;;;;;;;;;;;;;;;4976777;28;19929;-79
2023/01/16 05:27:39;;;;;;;;;;;;;;;;;;4976237;28;20020;-77
2023/01/16 05:30:05;;;;;;;;;;;;;;;;;;4977610;28;20450;-79
2023/01/16 05:32:31;;;;;;;;;;;;;;;;;;4976031;28;19932;-76
2023/01/16 05:35:00;;;;;;;;;;;;;;;;;;4978949;28;19944;-77
2023/01/16 05:37:26;;;;;;;;;;;;;;;;;;4961845;28;20051;-74
2023/01/16 05:39:52;;;;;;;;;;;;;;;;;;4978041;28;19921;-77
2023/01/16 05:42:21;;;;;;;;;;;;;;;;;;4978712;28;20012;-76
2023/01/16 05:44:47;;;;;;;;;;;;;;;;;;4981768;28;20020;-77
2023/01/16 05:47:13;;;;;;;;;;;;;;;;;;4962712;28;19926;-77
2023/01/16 05:49:39;;;;;;;;;;;;;;;;;;4964478;28;20289;-77
2023/01/16 05:52:05;;;;;;;;;;;;;;;;;;4961730;28;20016;-76
2023/01/16 05:54:31;;;;;;;;;;;;;;;;;;4962814;28;20364;-77
2023/01/16 05:56:57;;;;;;;;;;;;;;;;;;4962764;28;19933;-77
2023/01/16 05:59:23;;;;;;;;;;;;;;;;;;4964273;28;19929;-77
2023/01/16 06:01:49;;;;;;;;;;;;;;;;;;4981236;28;20364;-77
2023/01/16 06:04:17;;;;;;;;;;;;;;;;;;4964499;28;19930;-77
2023/01/16 06:06:43;;;;;;;;;;;;;;;;;;4964033;28;20348;-77
2023/01/16 06:09:09;;;;;;;;;;;;;;;;;;4981750;28;19925;-77
2023/01/16 06:11:35;;;;;;;;;;;;;;;;;;4963705;28;19932;-75
2023/01/16 06:14:03;;;;;;;;;;;;;;;;;;4963537;28;19925;-75
2023/01/16 06:16:29;;;;;;;;;;;;;;;;;;4977871;28;19921;-75
2023/01/16 06:18:55;;;;;;;;;;;;;;;;;;4981374;28;19989;-74
2023/01/16 06:21:21;;;;;;;;;;;;;;;;;;4962569;28;19928;-76
2023/01/16 06:23:47;;;;;;;;;;;;;;;;;;4963385;28;19948;-77
2023/01/16 06:26:13;;;;;;;;;;;;;;;;;;4959455;28;19975;-74
2023/01/16 06:28:38;;;;;;;;;;;;;;;;;;4962089;28;20459;-75
2023/01/16 06:31:04;;;;;;;;;;;;;;;;;;4984119;28;19936;-75
2023/01/16 06:33:30;;;;;;;;;;;;;;;;;;4983935;28;20004;-75
2023/01/16 06:35:56;;;;;;;;;;;;;;;;;;4966363;28;19976;-75
2023/01/16 06:38:22;;;;;;;;;;;;;;;;;;4966011;28;20027;-75
2023/01/16 06:40:48;;;;;;;;;;;;;;;;;;4968195;28;20365;-75
2023/01/16 06:43:16;;;;;;;;;;;;;;;;;;4964331;28;20504;-75
2023/01/16 06:45:42;;;;;;;;;;;;;;;;;;4966595;28;20344;-75
2023/01/16 06:48:08;;;;;;;;;;;;;;;;;;4963283;28;20430;-75
2023/01/16 06:50:34;;;;;;;;;;;;;;;;;;4963401;28;20008;-75
2023/01/16 06:53:00;;;;;;;;;;;;;;;;;;4983050;28;20000;-75
2023/01/16 06:55:26;;;;;;;;;;;;;;;;;;4961059;28;20348;-75
2023/01/16 06:57:52;;;;;;;;;;;;;;;;;;4963488;28;20307;-75
2023/01/16 07:00:18;;;;;;;;;;;;;;;;;;4961738;28;20057;-75
2023/01/16 07:02:43;;;;;;;;;;;;;;;;;;4963329;28;19921;-75
2023/01/16 07:05:09;;;;;;;;;;;;;;;;;;4962309;28;19932;-74
2023/01/16 07:07:36;;;;;;;0.10;0.10;;;;;;;;;;4941148;28;19969;-75
2023/01/16 07:10:03;;;;;;;0.10;0.10;;;;;;;;;;4961880;28;20065;-75
2023/01/16 07:12:29;;;;;;;0.10;0.10;;;;;;;;;;4957531;28;20515;-75
2023/01/16 07:23:29;;;;;;;1.17;1.17;;;;;;;;;;4959956;28;20085;-75
2023/01/16 07:25:57;;;;;;;0.20;0.20;;;;;;;;;;4962623;28;20062;-75
2023/01/16 07:28:23;;;;;;;0.10;0.10;;;;;;;;;;4959945;28;20094;-78
2023/01/16 07:30:49;;;;;;;0.20;0.20;;;;;;;;;;4962649;28;20046;-78
2023/01/16 07:33:16;;;;;;;0.10;0.10;;;;;;;;;;4961638;28;20081;-78
2023/01/16 07:35:43;;;;;;;0.10;0.10;;;;;;;;;;4962432;28;20073;-78
2023/01/16 07:38:09;;;;;;;0.10;0.10;;;;;;;;;;4961068;28;20054;-78
2023/01/16 07:40:35;;;;;;;0.10;0.10;;;;;;;;;;4960710;28;20061;-78
2023/01/16 07:43:01;;;;;;;0.10;0.10;;;;;;;;;;4963461;28;20058;-78
2023/01/16 07:45:27;;;;;;;0.25;0.25;;;;;;;;;;4979565;28;20075;-79
2023/01/16 07:47:53;;;;;;;0.35;0.35;;;;;;;;;;4976773;28;20050;-78
2023/01/16 07:50:19;;;;;;;0.10;0.10;;;;;;;;;;4977877;28;20103;-78
2023/01/16 07:52:46;;;;;;;0.10;0.10;;;;;;;;;;4977613;28;20097;-78
2023/01/16 07:55:12;;;;;;;0.10;0.10;;;;;;;;;;4978426;28;20050;-78
2023/01/16 07:57:38;;;;;;;0.10;0.10;;;;;;;;;;4978189;28;20085;-78
2023/01/16 08:00:06;;;;;;;0.10;0.10;;;;;;;;;;4977147;28;20596;-78
2023/01/16 08:02:32;;;;;;;0.82;0.80;;;;;;;;;;4976132;28;20062;-78
2023/01/16 08:04:58;;;;;;;0.38;0.38;;;;;;;;;;4975984;28;20518;-78
2023/01/16 08:07:24;;;;;;;0.10;0.10;;;;;;;;;;4976367;28;20054;-79
2023/01/16 08:09:50;;;;;;;;;;;;;;;;;;4961518;28;20513;-78
2023/01/16 08:12:16;;;;;;;;;;;;;;;;;;4976940;28;19931;-78
2023/01/16 08:14:42;;;;;;;;;;;;;;;;;;4977635;28;19933;-78
2023/01/16 08:17:08;;;;;;;;;;;;;;;;;;4978914;28;20505;-78
2023/01/16 08:19:34;;;;;;;;;;;;;;;;;;4979466;28;19929;-78
2023/01/16 08:22:00;;;;;;;;;;;;;;;;;;4975539;28;19926;-78
2023/01/16 08:24:26;;;;;;;;;;;;;;;;;;4974644;28;20015;-78
2023/01/16 08:26:52;;;;;;;;;;;;;;;;;;4976394;28;20007;-78
2023/01/16 08:29:18;;;;;;;;;;;;;;;;;;4975852;28;19925;-78
2023/01/16 08:31:44;;;;;;;;;;;;;;;;;;4976034;28;19937;-78
2023/01/16 08:34:10;;;;;;;;;;;;;;;;;;4974093;28;20592;-78
2023/01/16 08:36:35;;;;;;;;;;;;;;;;;;4976554;28;20204;-78
2023/01/16 08:39:01;;;;;;;;;;;;;;;;;;4978252;28;19933;-78
2023/01/16 08:52:29;;;;;;;;;;;;;;;;;;4975080;28;19921;-74
2023/01/16 08:54:55;;;;;;;;;;;;;;;;;;4958501;28;19930;-74
2023/01/16 08:57:21;;;;;;;;;;;;;;;;;;4979146;28;20292;-75
2023/01/16 08:59:47;;;;;;;;;;;;;;;;;;4957365;28;20158;-75
2023/01/16 09:02:14;;;;;;;;;;;;;;;;;;4958001;28;19987;-74
2023/01/16 09:04:40;;;;;;;;;;;;;;;;;;4961146;28;19989;-75
2023/01/16 09:07:06;;;;;;;;;;;;;;;;;;4944588;28;20012;-75
2023/01/16 09:09:32;;;;;;;;;;;;;;;;;;4978017;28;19934;-73
2023/01/16 09:14:43;;;;;;;;;;;;;;;;;;4959016;28;19988;-76
2023/01/16 09:17:09;;;;;;;;;;;;;;;;;;4958553;28;19936;-75
2023/01/16 09:19:35;;;;;;;;;;;;;;;;;;4958830;28;19930;-75
2023/01/16 09:22:01;;;;;;;;;;;;;;;;;;4959719;28;20334;-74
2023/01/16 09:24:27;;;;;;;;;;;;;;;;;;4959556;28;20377;-75
2023/01/16 09:26:53;;;;;;;;;;;;;;;;;;4959945;28;19928;-75
2023/01/16 09:29:19;;;;;;;;;;;;;;;;;;4955232;28;20403;-74
2023/01/16 09:31:45;;;;;;;;;;;;;;;;;;4960489;28;19933;-75
2023/01/16 09:34:11;;;;;;;;;;;;;;;;;;4959841;28;20015;-75
2023/01/16 09:36:37;;;;;;;;;;;;;;;;;;4961708;28;19964;-75
2023/01/16 09:39:02;;;;;;;;;;;;;;;;;;4957241;28;20281;-75
2023/01/16 09:44:13;;;;;;;;;;;;;;;;;;4971510;28;19932;-74
2023/01/16 09:46:39;;;;;;;;;;;;;;;;;;4975495;28;19929;-74
2023/01/16 09:49:05;;;;;;;;;;;;;;;;;;4975227;28;19921;-76
2023/01/16 09:51:31;;;;;;;;;;;;;;;;;;4977566;28;19984;-76
2023/01/16 09:59:11;;;;;;;;;;;;;;;;;;4975626;28;19925;-78
2023/01/16 10:01:37;;;;;;;;;;;;;;;;;;4975126;28;21734;-78
2023/01/16 10:04:03;;;;;;;;;;;;;;;;;;4976190;28;19964;-77
2023/01/16 10:06:29;;;;;;;;;;;;;;;;;;4976020;28;19988;-77
2023/01/16 10:08:55;;;;;;;;;;;;;;;;;;4976611;28;19972;-77
2023/01/16 10:11:21;;;;;;;;;;;;;;;;;;4977234;28;19922;-76
2023/01/16 10:13:46;;;;;;;;;;;;;;;;;;4972625;28;20334;-78
2023/01/16 10:16:12;;;;;;;;;;;;;;;;;;4972760;28;20045;-78
2023/01/16 10:18:39;;;;;;;;;;;;;;;;;;4977087;28;20296;-77
2023/01/16 10:21:05;;;;;;;;;;;;;;;;;;4977966;28;19936;-77
2023/01/16 10:23:31;;;;;;;;;;;;;;;;;;4977623;28;19944;-77
2023/01/16 10:25:57;;;;;;;;;;;;;;;;;;4977250;28;20460;-79
2023/01/16 10:28:26;;;;;;;;;;;;;;;;;;4975743;28;19922;-76
2023/01/16 10:30:52;;;;;;;;;;;;;;;;;;4978613;28;20401;-78
2023/01/16 10:33:18;;;;;;;;;;;;;;;;;;4974893;28;19929;-77
2023/01/16 10:35:44;;;;;;;;;;;;;;;;;;4977404;28;19925;-74
2023/01/16 10:38:10;;;;;;;;;;;;;;;;;;4976469;28;19926;-78
2023/01/16 10:40:35;;;;;;;;;;;;;;;;;;4977260;28;20033;-76
2023/01/16 10:49:25;;;;;;;;;;;;;;;;;;4978526;28;19977;-76
2023/01/16 10:51:32;;;;;;;;;;;;;;;;;;4974827;28;19933;-76
2023/01/16 10:53:58;;;;;;;;;;;;;;;;;;4977612;28;19925;-75
2023/01/16 10:56:24;;;;;;;;;;;;;;;;;;4976041;28;19925;-74
2023/01/16 10:58:51;;;;;;;;;;;;;;;;;;4976015;28;19983;-74
2023/01/16 11:01:17;;;;;;;;;;;;;;;;;;4972146;28;20388;-75
2023/01/16 11:03:43;;;;;;;;;;;;;;;;;;4975838;28;19931;-73
2023/01/16 11:06:09;;;;;;;;;;;;;;;;;;4977288;28;19925;-78
2023/01/16 11:08:35;;;;;;;;;;;;;;;;;;4959481;28;20293;-78
2023/01/16 11:11:01;;;;;;;;;;;;;;;;;;4975709;28;20573;-78
2023/01/16 11:19:12;;;;;;;;;;;;;;;;;;4977476;28;19921;-74
2023/01/16 11:21:37;;;;;;;;;;;;;;;;;;4975957;28;19926;-74
2023/01/16 11:24:03;;;;;;;;;;;;;;;;;;4978466;28;20131;-74
2023/01/16 11:26:30;;;;;;;;;;;;;;;;;;4977136;28;19926;-75
2023/01/16 11:28:56;;;;;;;;;;;;;;;;;;4962225;28;19930;-75
2023/01/16 11:31:24;;;;;;;;;;;;;;;;;;4945944;28;20036;-75
2023/01/16 11:34:05;;;;;;;;;;;;;;;;;;4974107;28;20648;-77
2023/01/16 11:36:31;;;;;;;;;;;;;;;;;;4962715;28;20020;-77
2023/01/16 11:38:57;;;;;;;;;;;;;;;;;;4977898;28;19980;-79
2023/01/16 11:41:23;;;;;;;;;;;;;;;;;;4977471;28;19933;-78
2023/01/16 11:46:34;;;;;;;;;;;;;;;;;;4975930;28;19922;-74
2023/01/16 11:49:00;;;;;;;;;;;;;;;;;;4977023;28;20760;-73
2023/01/16 11:51:26;;;;;;;;;;;;;;;;;;4977689;28;19948;-73
2023/01/16 11:53:52;;;;;;;;;;;;;;;;;;4977531;28;20484;-74
2023/01/16 11:56:18;;;;;;;;;;;;;;;;;;4973323;28;19925;-74
2023/01/16 11:58:44;;;;;;;;;;;;;;;;;;4975894;28;19969;-73
2023/01/16 12:01:10;;;;;;;;;;;;;;;;;;4980098;28;20327;-73
2023/01/16 12:03:36;;;;;;;;;;;;;;;;;;4977979;28;20051;-73
2023/01/16 12:06:02;;;;;;;;;;;;;;;;;;4980959;28;19991;-74
2023/01/16 12:08:28;;;;;;;;;;;;;;;;;;4977740;28;19925;-72
2023/01/16 12:10:54;;;;;;;;;;;;;;;;;;4964825;28;20661;-77
2023/01/16 12:16:04;;;;;;;;;;;;;;;;;;4979028;28;19936;-75
2023/01/16 12:18:30;;;;;;;;;;;;;;;;;;4973838;28;19929;-79
2023/01/16 12:20:56;;;;;;;;;;;;;;;;;;4977247;28;19994;-77
2023/01/16 12:23:22;;;;;;;;;;;;;;;;;;4976831;28;19960;-81
2023/01/16 12:25:50;;;;;;;;;;;;;;;;;;4978650;28;19948;-75
2023/01/16 12:28:16;;;;;;;;;;;;;;;;;;4974802;28;19925;-78
2023/01/16 12:30:42;;;;;;;;;;;;;;;;;;4976583;28;19933;-76
2023/01/16 12:33:13;;;;;;;;;;;;;;;;;;4977755;28;19930;-75
2023/01/16 12:35:39;;;;;;;;;;;;;;;;;;4977294;28;19925;-80
2023/01/16 12:38:05;;;;;;;;;;;;;;;;;;4948140;28;20015;-78
2023/01/16 12:40:31;;;;;;;;;;;;;;;;;;4975343;28;19922;-76
2023/01/16 12:45:42;;;;;;;;;;;;;;;;;;4976257;28;19932;-77
2023/01/16 12:48:08;;;;;;;;;;;;;;;;;;4978152;28;20420;-75
2023/01/16 12:50:33;;;;;;;;;;;;;;;;;;4975985;28;19928;-79
2023/01/16 12:52:59;;;;;;;;;;;;;;;;;;4949373;28;19984;-78
2023/01/16 12:55:25;;;;;;;;;;;;;;;;;;4980360;28;19929;-78
2023/01/16 12:57:51;;;;;;;;;;;;;;;;;;4977853;28;19933;-78
2023/01/16 13:00:17;;;;;;;;;;;;;;;;;;4975821;28;19968;-78
2023/01/16 13:02:44;;;;;;;;;;;;;;;;;;4975438;28;20015;-81
2023/01/16 13:05:12;;;;;;;;;;;;;;;;;;4975769;28;19930;-81
2023/01/16 13:07:38;;;;;;;;;;;;;;;;;;4977706;28;19926;-78
2023/01/16 13:13:20;;;;;;;;;;;;;;;;;;4945139;28;19929;-79
2023/01/16 13:15:44;;;;;;;;;;;;;;;;;;4973724;28;20197;-80
2023/01/16 13:18:10;;;;;;;;;;;;;;;;;;4979109;28;19930;-80
2023/01/16 13:20:36;;;;;;;;;;;;;;;;;;4961738;28;19926;-81
2023/01/16 13:23:02;;;;;;;;;;;;;;;;;;4976245;28;19921;-79
2023/01/16 13:25:28;;;;;;;;;;;;;;;;;;4977817;28;19925;-80
2023/01/16 13:27:54;;;;;;;;;;;;;;;;;;4978995;28;19926;-79
2023/01/16 13:30:20;;;;;;;;;;;;;;;;;;4972187;28;20301;-83
2023/01/16 13:32:46;;;;;;;;;;;;;;;;;;4976968;28;19940;-79
2023/01/16 13:35:12;;;;;;;;;;;;;;;;;;4975340;28;19929;-80
2023/01/16 13:37:38;;;;;;;;;;;;;;;;;;4976796;28;19948;-80
2023/01/16 13:40:05;;;;;;;;;;;;;;;;;;4961569;28;20149;-80
2023/01/16 13:42:33;;;;;;;;;;;;;;;;;;4975354;28;19937;-81
2023/01/16 13:47:44;;;;;;;;;;;;;;;;;;4957839;28;19936;-80
2023/01/16 13:50:09;;;;;;;;;;;;;;;;;;4959103;28;19951;-79
2023/01/16 13:52:35;;;;;;;;;;;;;;;;;;4957808;28;20324;-79
2023/01/16 13:55:02;;;;;;;;;;;;;;;;;;4979033;28;21778;-79
2023/01/16 13:57:29;;;;;;;;;;;;;;;;;;4978062;28;19925;-81
2023/01/16 13:59:54;;;;;;;;;;;;;;;;;;4945047;28;19932;-79
2023/01/16 14:02:20;;;;;;;;;;;;;;;;;;4973889;28;19926;-80
2023/01/16 14:04:46;;;;;;;;;;;;;;;;;;4958524;28;20465;-83
2023/01/16 14:09:57;;;;;;;;;;;;;;;;;;4958618;28;19937;-79
2023/01/16 14:12:25;;;;;;;;;;;;;;;;;;4955111;28;19934;-79
2023/01/16 14:17:36;;;;;;;;;;;;;;;;;;4956609;28;19977;-81
2023/01/16 14:20:02;;;;;;;;;;;;;;;;;;4959151;28;20040;-78
2023/01/16 14:24:54;;;;;;;;;;;;;;;;;;4956585;28;20603;-80
2023/01/16 14:27:20;;;;;;;;;;;;;;;;;;4957611;28;19992;-79
2023/01/16 14:29:46;;;;;;;;;;;;;;;;;;4954217;28;19925;-78
2023/01/16 14:32:12;;;;;;;;;;;;;;;;;;4962268;28;20596;-79
2023/01/16 14:34:44;;;;;;;;;;;;;;;;;;4957765;28;20056;-83
2023/01/16 14:37:10;;;;;;;;;;;;;;;;;;4958066;28;20293;-82
2023/01/16 14:39:36;;;;;;;;;;;;;;;;;;4966799;28;19930;-88
2023/01/16 14:55:48;;;;;;;;;;;;;;;;;;4977959;28;19925;-80
2023/01/16 14:58:14;;;;;;;;;;;;;;;;;;4960961;28;20017;-80
2023/01/16 15:00:40;;;;;;;;;;;;;;;;;;4979798;28;19932;-80
2023/01/16 15:03:06;;;;;;;;;;;;;;;;;;4978896;28;19922;-79
2023/01/16 15:05:49;;;;;;;;;;;;;;;;;;4963728;28;19926;-79
2023/01/16 15:08:15;;;;;;;;;;;;;;;;;;4978215;28;19921;-80
2023/01/16 15:10:44;;;;;;;;;;;;;;;;;;4964829;28;20782;-80
2023/01/16 15:13:10;;;;;;;;;;;;;;;;;;4963225;28;19925;-79
2023/01/16 15:15:36;;;;;;;;;;;;;;;;;;4948849;28;19927;-79
2023/01/16 15:23:32;;;;;;;;;;;;;;;;;;4979750;28;20032;-78
2023/01/16 15:25:58;;;;;;;;;;;;;;;;;;4948553;28;19930;-79
2023/01/16 15:28:24;;;;;;;;;;;;;;;;;;4979700;28;19926;-79
2023/01/16 15:30:54;;;;;;;;;;;;;;;;;;4964277;28;19925;-79
2023/01/16 15:36:09;;;;;;;;;;;;;;;;;;4979010;28;20427;-78
2023/01/16 15:38:35;;;;;;;;;;;;;;;;;;4979409;28;19925;-79
2023/01/16 15:41:03;;;;;;;;;;;;;;;;;;4979813;28;19921;-81
2023/01/16 15:46:32;;;;;;;;;;;;;;;;;;4963473;28;20069;-81
2023/01/16 15:48:58;;;;;;;;;;;;;;;;;;4963548;28;19921;-81
2023/01/16 15:51:24;;;;;;;;;;;;;;;;;;4965438;28;20338;-81
2023/01/16 15:53:54;;;;;;;;;;;;;;;;;;4965142;28;20086;-81
2023/01/16 15:56:20;;;;;;;;;;;;;;;;;;4964217;28;19977;-81
2023/01/16 15:58:47;;;;;;;;;;;;;;;;;;4964947;28;20073;-82
2023/01/16 16:01:13;;;;;;;;;;;;;;;;;;4966863;28;19936;-81
2023/01/16 16:03:39;;;;;;;;;;;;;;;;;;4963839;28;19921;-80
2023/01/16 16:06:05;;;;;;;;;;;;;;;;;;4963587;28;20016;-81
2023/01/16 16:08:31;;;;;;;;;;;;;;;;;;4981814;28;19925;-80
2023/01/16 16:13:42;;;;;;;;;;;;;;;;;;4965405;28;19980;-86
2023/01/16 16:18:53;;;;;;;;;;;;;;;;;;4966743;28;19929;-89
2023/01/16 16:21:19;;;;;;;;;;;;;;;;;;4965018;28;19922;-89
2023/01/16 16:23:45;;;;;;;;;;;;;;;;;;4965110;28;19925;-92
2023/01/16 16:26:11;;;;;;;;;;;;;;;;;;4951482;28;19933;-94
2023/01/16 16:28:38;;;;;;;;;;;;;;;;;;4966725;28;19928;-91
2023/01/16 16:31:04;;;;;;;;;;;;;;;;;;4962052;28;19930;-82
2023/01/16 16:33:31;;;;;;;;;;;;;;;;;;4979611;28;20465;-83
2023/01/16 16:35:57;;;;;;;;;;;;;;;;;;4962451;28;19926;-91
2023/01/16 16:38:23;;;;;;;;;;;;;;;;;;4963301;28;21018;-83
2023/01/16 16:40:49;;;;;;;;;;;;;;;;;;4960563;28;19926;-84
2023/01/16 16:43:15;;;;;;;;;;;;;;;;;;4961695;28;19933;-84
2023/01/16 16:45:41;;;;;;;;;;;;;;;;;;4964372;28;20537;-82
2023/01/16 16:48:07;;;;;;;;;;;;;;;;;;4958761;28;20028;-81
2023/01/16 16:50:33;;;;;;;;;;;;;;;;;;4963290;28;20129;-81
2023/01/16 16:52:59;;;;;;;;;;;;;;;;;;4945726;28;19932;-82
2023/01/16 16:55:25;;;;;;;;;;;;;;;;;;4962157;28;19925;-82
2023/01/16 16:57:50;;;;;;;;;;;;;;;;;;4957902;28;19922;-76
2023/01/16 17:00:17;;;;;;;;;;;;;;;;;;4957339;28;20500;-76
2023/01/16 17:02:43;;;;;;;;;;;;;;;;;;4960242;28;20008;-77
2023/01/16 17:05:09;;;;;;;;;;;;;;;;;;4962013;28;19929;-77
2023/01/16 17:07:36;;;;;;;;;;;;;;;;;;4961765;28;19925;-76
2023/01/16 17:10:01;;;;;;;;;;;;;;;;;;4957818;28;20450;-77
2023/01/16 17:12:27;;;;;;;;;;;;;;;;;;4982078;28;19929;-76
2023/01/16 17:14:53;;;;;;;;;;;;;;;;;;4960585;28;20385;-75
2023/01/16 17:17:19;;;;;;;;;;;;;;;;;;4959402;28;19931;-83
2023/01/16 17:19:45;;;;;;;;;;;;;;;;;;4959475;28;19981;-79
2023/01/16 17:22:11;;;;;;;;;;;;;;;;;;4961656;28;20467;-80
2023/01/16 17:24:37;;;;;;;;;;;;;;;;;;4958830;28;19936;-81
2023/01/16 17:27:07;;;;;;;;;;;;;;;;;;4946346;28;19929;-81
2023/01/16 17:29:33;;;;;;;;;;;;;;;;;;4957543;28;20547;-79
2023/01/16 17:32:04;;;;;;;;;;;;;;;;;;4959125;28;19957;-80
2023/01/16 17:34:32;;;;;;;;;;;;;;;;;;4959755;28;19921;-85
2023/01/16 17:36:58;;;;;;;;;;;;;;;;;;4960376;28;19925;-85
2023/01/16 17:39:25;;;;;;;;;;;;;;;;;;4958003;28;20454;-83
2023/01/16 17:47:02;;;;;;;;;;;;;;;;;;4960876;28;19964;-87
2023/01/16 17:49:28;;;;;;;;;;;;;;;;;;4957936;28;20381;-85
2023/01/16 17:51:54;;;;;;;;;;;;;;;;;;4955707;28;20356;-90
2023/01/16 17:57:04;;;;;;;;;;;;;;;;;;4956645;28;20435;-81
2023/01/16 17:59:30;;;;;;;;;;;;;;;;;;4975839;28;20046;-80
2023/01/16 18:01:56;;;;;;;;;;;;;;;;;;4975123;28;20167;-83
2023/01/16 18:04:22;;;;;;;;;;;;;;;;;;4958100;28;20376;-78
2023/01/16 18:06:48;;;;;;;;;;;;;;;;;;4954792;28;20036;-78
2023/01/16 18:09:14;;;;;;;;;;;;;;;;;;4954740;28;20007;-82
2023/01/16 18:22:53;;;;;;;;;;;;;;;;;;4972234;28;19936;-86
2023/01/16 18:25:19;;;;;;;;;;;;;;;;;;4995601;28;19925;-81
2023/01/16 18:27:45;;;;;;;;;;;;;;;;;;4997240;28;20015;-82